Time;durP1;ratioP1;P1;durP2;ratioP2;P2;SDS_P1;SDS_P2;PMS_P1;PMS_P2;Temp;Humidity;BMP_temperature;BMP_pressure;BME280_temperature;BME280_humidity;BME280_pressure;Samples;Min_cycle;Max_cycle;Signal;HPM_P1;HPM_P2
2021/03/07 00:01:21;;;;;;;2.23;1.43;;;3.40;99.90;;;;;;5005521;28;20356;-51
2021/03/07 00:03:47;;;;;;;2.27;1.70;;;3.40;99.90;;;;;;5007493;28;20646;-48
2021/03/07 00:06:12;;;;;;;3.90;1.53;;;3.40;99.90;;;;;;5002238;28;21053;-50
2021/03/07 00:08:38;;;;;;;5.87;1.77;;;3.40;99.90;;;;;;5000749;28;20213;-49
2021/03/07 00:11:04;;;;;;;2.17;1.17;;;3.40;99.90;;;;;;4980788;28;20193;-55
2021/03/07 00:13:29;;;;;;;1.70;1.20;;;3.50;99.90;;;;;;4992685;28;20194;-49
2021/03/07 00:15:55;;;;;;;5.83;2.10;;;3.50;99.90;;;;;;4985574;28;20217;-55
2021/03/07 00:18:21;;;;;;;3.80;1.40;;;3.40;99.90;;;;;;4984416;28;20176;-50
2021/03/07 00:20:46;;;;;;;3.10;1.43;;;3.40;99.90;;;;;;4986841;28;20208;-49
2021/03/07 00:23:12;;;;;;;3.37;1.43;;;3.40;99.90;;;;;;4980454;28;20169;-52
2021/03/07 00:25:37;;;;;;;4.43;1.40;;;3.40;99.90;;;;;;4973291;28;20220;-50
2021/03/07 00:28:03;;;;;;;1.70;1.40;;;3.30;99.90;;;;;;4997763;28;20205;-49
2021/03/07 00:30:28;;;;;;;1.50;1.13;;;3.30;99.90;;;;;;4982854;28;20173;-53
2021/03/07 00:32:54;;;;;;;4.43;1.20;;;3.30;99.90;;;;;;4983222;28;20185;-52
2021/03/07 00:35:19;;;;;;;1.83;1.60;;;3.30;99.90;;;;;;4981251;28;20933;-53
2021/03/07 00:37:45;;;;;;;2.67;1.70;;;3.30;99.90;;;;;;5003301;28;20662;-54
2021/03/07 00:40:11;;;;;;;3.17;1.40;;;3.30;99.90;;;;;;4968757;28;20210;-51
2021/03/07 00:42:46;;;;;;;2.77;1.67;;;3.30;99.90;;;;;;4997027;28;20192;-54
2021/03/07 00:45:14;;;;;;;2.60;1.50;;;3.30;99.90;;;;;;4999086;28;21006;-54
2021/03/07 00:47:40;;;;;;;2.20;1.47;;;3.30;99.90;;;;;;5003809;28;20215;-53
2021/03/07 00:50:17;;;;;;;4.70;1.47;;;3.30;99.90;;;;;;5002794;28;20180;-53
2021/03/07 00:52:42;;;;;;;4.20;1.50;;;3.30;99.90;;;;;;5005732;28;20184;-50
2021/03/07 00:55:08;;;;;;;2.20;1.30;;;3.20;99.90;;;;;;5001525;28;20215;-49
2021/03/07 00:57:35;;;;;;;2.03;1.10;;;3.30;99.90;;;;;;4989662;28;20201;-52
2021/03/07 01:00:00;;;;;;;1.70;1.40;;;3.30;99.90;;;;;;4992638;28;20234;-51
2021/03/07 01:02:26;;;;;;;3.93;1.53;;;3.30;99.90;;;;;;5001426;28;20177;-53
2021/03/07 01:04:52;;;;;;;4.33;1.10;;;3.30;99.90;;;;;;5004948;28;20288;-55
2021/03/07 01:07:19;;;;;;;2.83;1.57;;;3.30;99.90;;;;;;5002063;28;20279;-49
2021/03/07 01:09:45;;;;;;;2.57;1.20;;;3.30;99.90;;;;;;4989766;28;20197;-49
2021/03/07 01:12:10;;;;;;;2.03;1.20;;;3.30;99.90;;;;;;4970866;28;20831;-54
2021/03/07 01:14:36;;;;;;;3.00;1.20;;;3.30;99.90;;;;;;4997010;28;20189;-50
2021/03/07 01:17:01;;;;;;;3.77;1.33;;;3.40;99.90;;;;;;4985389;28;20220;-54
2021/03/07 01:19:34;;;;;;;3.10;1.20;;;3.40;99.90;;;;;;4987961;28;20287;-47
2021/03/07 01:22:01;;;;;;;3.20;1.10;;;3.40;99.90;;;;;;4986325;28;20582;-49
2021/03/07 01:24:27;;;;;;;2.83;1.00;;;3.40;99.90;;;;;;4985815;28;20840;-51
2021/03/07 01:26:52;;;;;;;4.77;1.10;;;3.40;99.90;;;;;;4984445;28;20281;-52
2021/03/07 01:29:18;;;;;;;5.67;1.20;;;3.40;99.90;;;;;;4988405;28;20232;-54
2021/03/07 01:31:43;;;;;;;3.07;1.00;;;3.40;99.90;;;;;;5002642;28;20258;-54
2021/03/07 01:34:09;;;;;;;2.50;1.07;;;3.40;99.90;;;;;;5002548;28;20251;-50
2021/03/07 01:36:34;;;;;;;1.50;0.80;;;3.40;99.90;;;;;;5006608;28;20291;-52
2021/03/07 01:39:00;;;;;;;4.40;1.47;;;3.40;99.90;;;;;;4994610;28;20237;-53
2021/03/07 01:41:26;;;;;;;4.50;1.10;;;3.30;99.90;;;;;;4985464;28;20227;-52
2021/03/07 01:43:51;;;;;;;2.63;1.10;;;3.30;99.90;;;;;;4983166;28;20195;-50
2021/03/07 01:46:17;;;;;;;2.30;0.97;;;3.30;99.90;;;;;;4995263;28;20208;-47
2021/03/07 01:48:43;;;;;;;2.57;1.40;;;3.30;99.90;;;;;;5006046;28;20251;-50
2021/03/07 01:51:09;;;;;;;5.20;1.10;;;3.30;99.90;;;;;;5002508;28;20187;-48
2021/03/07 01:53:35;;;;;;;4.37;0.87;;;3.30;99.90;;;;;;5006532;28;20186;-47
2021/03/07 01:56:04;;;;;;;3.23;1.17;;;3.30;99.90;;;;;;5004159;28;20204;-48
2021/03/07 01:58:33;;;;;;;2.20;1.00;;;3.20;99.90;;;;;;4985900;28;20205;-50
2021/03/07 02:00:59;;;;;;;2.00;0.90;;;3.20;99.90;;;;;;4992656;28;20181;-50
2021/03/07 02:03:25;;;;;;;2.23;1.00;;;3.20;99.90;;;;;;4988339;28;20175;-54
2021/03/07 02:05:51;;;;;;;3.03;1.13;;;3.20;99.90;;;;;;5005208;28;20192;-49
2021/03/07 02:08:18;;;;;;;1.50;0.97;;;3.20;99.90;;;;;;4983158;28;20947;-53
2021/03/07 02:10:48;;;;;;;2.60;1.10;;;3.20;99.90;;;;;;4986294;28;20314;-53
2021/03/07 02:13:16;;;;;;;3.70;1.40;;;3.20;99.90;;;;;;4972106;28;20208;-50
2021/03/07 02:15:46;;;;;;;2.97;1.43;;;3.20;99.90;;;;;;4997464;28;20233;-51
2021/03/07 02:18:13;;;;;;;3.57;1.20;;;3.20;99.90;;;;;;4982574;28;20173;-53
2021/03/07 02:20:47;;;;;;;2.83;1.20;;;3.30;99.90;;;;;;5005493;28;20189;-50
2021/03/07 02:23:18;;;;;;;3.40;1.20;;;3.20;99.90;;;;;;4982573;28;20180;-50
2021/03/07 02:25:44;;;;;;;3.00;1.07;;;3.20;99.90;;;;;;4988939;28;20256;-46
2021/03/07 02:28:10;;;;;;;2.50;1.17;;;3.30;99.90;;;;;;4978398;28;20248;-51
2021/03/07 02:30:37;;;;;;;7.53;1.23;;;3.30;99.90;;;;;;5001587;28;20202;-49
2021/03/07 02:33:07;;;;;;;2.33;0.90;;;3.20;99.90;;;;;;5004115;28;20184;-47
2021/03/07 02:35:37;;;;;;;2.60;0.83;;;3.30;99.90;;;;;;5005465;28;20215;-47
2021/03/07 02:38:05;;;;;;;7.60;1.30;;;3.30;99.90;;;;;;5003095;28;20695;-47
2021/03/07 02:40:32;;;;;;;1.57;1.20;;;3.30;99.90;;;;;;5004596;28;20715;-48
2021/03/07 02:42:59;;;;;;;3.83;0.93;;;3.30;99.90;;;;;;4997668;28;20185;-47
2021/03/07 02:45:25;;;;;;;1.63;1.00;;;3.30;99.90;;;;;;4992178;28;20239;-52
2021/03/07 02:47:52;;;;;;;5.80;1.20;;;3.20;99.90;;;;;;5001982;28;20278;-50
2021/03/07 02:50:24;;;;;;;5.03;1.00;;;3.20;99.90;;;;;;5001902;28;20235;-53
2021/03/07 02:53:07;;;;;;;5.03;1.20;;;3.20;99.90;;;;;;5005565;28;20645;-47
2021/03/07 02:55:36;;;;;;;2.80;1.07;;;3.20;99.90;;;;;;5004810;28;20203;-47
2021/03/07 02:58:08;;;;;;;4.57;2.07;;;3.30;99.90;;;;;;4999021;28;20247;-50
2021/03/07 03:00:36;;;;;;;2.17;0.90;;;3.30;99.90;;;;;;4984982;28;20665;-50
2021/03/07 03:03:07;;;;;;;3.33;1.07;;;3.30;99.90;;;;;;4991088;28;20203;-51
2021/03/07 03:05:34;;;;;;;2.00;0.93;;;3.30;99.90;;;;;;4985227;28;20902;-48
2021/03/07 03:08:01;;;;;;;1.27;0.80;;;3.30;99.90;;;;;;4983158;28;20252;-47
2021/03/07 03:10:28;;;;;;;2.53;1.37;;;3.30;99.90;;;;;;4983767;28;20940;-48
2021/03/07 03:12:55;;;;;;;2.37;1.00;;;3.30;99.90;;;;;;4984519;28;20170;-51
2021/03/07 03:15:20;;;;;;;1.87;1.10;;;3.30;99.90;;;;;;4972065;28;20322;-49
2021/03/07 03:17:51;;;;;;;2.07;1.20;;;3.30;99.90;;;;;;4996561;28;20189;-48
2021/03/07 03:20:20;;;;;;;1.33;1.00;;;3.30;99.90;;;;;;4984773;28;20185;-51
2021/03/07 03:22:47;;;;;;;1.93;1.03;;;3.30;99.90;;;;;;4988597;28;20185;-51
2021/03/07 03:25:13;;;;;;;3.10;1.30;;;3.30;99.90;;;;;;4984622;28;20204;-47
2021/03/07 03:27:38;;;;;;;3.33;1.20;;;3.30;99.90;;;;;;4989658;28;20591;-49
2021/03/07 03:30:10;;;;;;;2.57;1.27;;;3.30;99.90;;;;;;4994337;28;20198;-51
2021/03/07 03:32:36;;;;;;;6.23;1.50;;;3.30;99.90;;;;;;5000558;28;20194;-47
2021/03/07 03:35:06;;;;;;;2.70;1.60;;;3.30;99.90;;;;;;4983982;28;20205;-51
2021/03/07 03:37:31;;;;;;;1.73;1.33;;;3.30;99.90;;;;;;4984391;28;20177;-49
2021/03/07 03:39:57;;;;;;;2.33;1.20;;;3.30;99.90;;;;;;4983185;28;20178;-50
2021/03/07 03:42:24;;;;;;;1.20;1.07;;;3.30;99.90;;;;;;4982481;28;20161;-52
2021/03/07 03:44:50;;;;;;;4.67;1.63;;;3.30;99.90;;;;;;4986460;28;20653;-54
2021/03/07 03:47:17;;;;;;;4.13;1.50;;;3.30;99.90;;;;;;4980876;28;20749;-50
2021/03/07 03:49:53;;;;;;;6.87;2.10;;;3.20;99.90;;;;;;5000970;28;20304;-47
2021/03/07 03:52:21;;;;;;;3.00;1.50;;;3.20;99.90;;;;;;5002950;28;20769;-49
2021/03/07 03:54:53;;;;;;;5.07;1.67;;;3.20;99.90;;;;;;5005898;28;20200;-49
2021/03/07 03:57:24;;;;;;;3.57;2.20;;;3.20;99.90;;;;;;5003160;28;20833;-51
2021/03/07 03:59:56;;;;;;;4.40;2.03;;;3.20;99.90;;;;;;5005355;28;20531;-50
2021/03/07 04:02:23;;;;;;;3.63;2.00;;;3.20;99.90;;;;;;4976175;28;20443;-50
2021/03/07 04:04:50;;;;;;;5.77;2.43;;;3.20;99.90;;;;;;4997423;28;20215;-51
2021/03/07 04:07:18;;;;;;;4.93;2.40;;;3.20;99.90;;;;;;5002613;28;20185;-50
2021/03/07 04:09:43;;;;;;;3.30;2.03;;;3.20;99.90;;;;;;5005489;28;20226;-46
2021/03/07 04:12:09;;;;;;;6.93;2.10;;;3.30;99.90;;;;;;5001871;28;20169;-54
2021/03/07 04:14:36;;;;;;;3.03;1.83;;;3.20;99.90;;;;;;5005336;28;20215;-47
2021/03/07 04:17:02;;;;;;;3.60;1.97;;;3.20;99.90;;;;;;4994413;28;20181;-53
2021/03/07 04:19:30;;;;;;;1.73;1.60;;;3.20;99.90;;;;;;4994636;28;20195;-47
2021/03/07 04:21:56;;;;;;;3.37;1.60;;;3.20;99.90;;;;;;5001465;28;20215;-52
2021/03/07 04:24:22;;;;;;;5.00;1.50;;;3.30;99.90;;;;;;5002797;28;20177;-49
2021/03/07 04:26:48;;;;;;;5.13;1.90;;;3.20;99.90;;;;;;5003480;28;20307;-53
2021/03/07 04:29:14;;;;;;;2.67;1.60;;;3.20;99.90;;;;;;4999018;28;20935;-49
2021/03/07 04:31:40;;;;;;;5.57;1.83;;;3.30;99.90;;;;;;4988994;28;20196;-51
2021/03/07 04:34:06;;;;;;;3.87;1.60;;;3.30;99.90;;;;;;4977465;28;20219;-50
2021/03/07 04:36:32;;;;;;;2.80;1.60;;;3.20;99.90;;;;;;4989200;28;20555;-51
2021/03/07 04:38:57;;;;;;;5.07;1.80;;;3.30;99.90;;;;;;4982163;28;20236;-50
2021/03/07 04:41:23;;;;;;;3.70;1.53;;;3.30;99.90;;;;;;4981649;28;20173;-51
2021/03/07 04:43:50;;;;;;;1.40;1.30;;;3.20;99.90;;;;;;4983737;28;20182;-52
2021/03/07 04:46:19;;;;;;;2.83;1.77;;;3.30;99.90;;;;;;4979637;28;20231;-51
2021/03/07 04:48:45;;;;;;;1.93;1.60;;;3.30;99.90;;;;;;4977571;28;20293;-49
2021/03/07 04:51:11;;;;;;;3.00;1.37;;;3.30;99.90;;;;;;4990872;28;20239;-48
2021/03/07 04:53:37;;;;;;;2.03;1.40;;;3.30;99.90;;;;;;5002758;28;20690;-53
2021/03/07 04:56:03;;;;;;;4.20;1.60;;;3.30;99.90;;;;;;5001139;28;20336;-53
2021/03/07 04:58:28;;;;;;;3.57;1.60;;;3.30;99.90;;;;;;5005202;28;20294;-49
2021/03/07 05:00:54;;;;;;;3.53;1.60;;;3.30;99.90;;;;;;4996787;28;20683;-55
2021/03/07 05:03:19;;;;;;;2.40;1.80;;;3.30;99.90;;;;;;4983609;28;20961;-47
2021/03/07 05:05:48;;;;;;;2.70;1.60;;;3.30;99.90;;;;;;4988761;28;20219;-47
2021/03/07 05:08:13;;;;;;;3.10;1.87;;;3.30;99.90;;;;;;4993987;28;20777;-48
2021/03/07 05:10:39;;;;;;;2.60;1.67;;;3.30;99.90;;;;;;5005975;28;20184;-50
2021/03/07 05:13:04;;;;;;;3.00;1.70;;;3.30;99.90;;;;;;5001500;28;20526;-52
2021/03/07 05:15:30;;;;;;;3.87;1.60;;;3.30;99.90;;;;;;5002117;28;20207;-49
2021/03/07 05:17:56;;;;;;;1.83;1.70;;;3.30;99.90;;;;;;5001916;28;20180;-52
2021/03/07 05:20:21;;;;;;;4.40;2.30;;;3.30;99.90;;;;;;4981140;28;20180;-52
2021/03/07 05:22:47;;;;;;;4.20;2.07;;;3.30;99.90;;;;;;4994751;28;20644;-47
2021/03/07 05:25:12;;;;;;;3.83;1.60;;;3.30;99.90;;;;;;4999036;28;20196;-52
2021/03/07 05:27:38;;;;;;;5.10;2.13;;;3.30;99.90;;;;;;5002718;28;20215;-52
2021/03/07 05:30:05;;;;;;;6.73;2.37;;;3.30;99.90;;;;;;4997985;28;20193;-52
2021/03/07 05:32:31;;;;;;;5.00;2.10;;;3.40;99.90;;;;;;4982528;28;20184;-51
2021/03/07 05:34:56;;;;;;;5.10;1.80;;;3.30;99.90;;;;;;4977526;28;20273;-50
2021/03/07 05:37:22;;;;;;;3.73;2.13;;;3.30;99.90;;;;;;4983840;28;20188;-48
2021/03/07 05:39:47;;;;;;;6.13;2.70;;;3.30;99.90;;;;;;4986816;28;20192;-50
2021/03/07 05:42:13;;;;;;;2.20;1.97;;;3.30;99.90;;;;;;4979029;28;20181;-49
2021/03/07 05:44:39;;;;;;;4.47;2.37;;;3.40;99.90;;;;;;4983174;28;20202;-48
2021/03/07 05:47:05;;;;;;;5.27;2.20;;;3.30;99.90;;;;;;4980182;28;20181;-51
2021/03/07 05:49:31;;;;;;;5.53;2.33;;;3.40;99.90;;;;;;4981998;28;20740;-48
2021/03/07 05:51:57;;;;;;;3.53;2.23;;;3.40;99.90;;;;;;4976908;28;20189;-50
2021/03/07 05:54:23;;;;;;;3.57;1.90;;;3.40;99.90;;;;;;4992172;28;20165;-51
2021/03/07 05:56:49;;;;;;;3.67;2.40;;;3.40;99.90;;;;;;5002497;28;20654;-50
2021/03/07 05:59:17;;;;;;;5.20;2.23;;;3.40;99.90;;;;;;4998172;28;20267;-51
2021/03/07 06:01:42;;;;;;;5.63;1.83;;;3.40;99.90;;;;;;4987542;28;20188;-49
2021/03/07 06:04:08;;;;;;;5.23;2.03;;;3.40;99.90;;;;;;4980863;28;20192;-52
2021/03/07 06:06:34;;;;;;;7.13;2.57;;;3.40;99.90;;;;;;4986496;28;20205;-50
2021/03/07 06:09:24;;;;;;;4.07;2.47;;;3.40;99.90;;;;;;4987119;28;20262;-50
2021/03/07 06:11:51;;;;;;;3.97;2.43;;;3.40;99.90;;;;;;5002525;28;20254;-51
2021/03/07 06:14:21;;;;;;;6.60;1.97;;;3.40;99.90;;;;;;5002645;28;20180;-52
2021/03/07 06:17:10;;;;;;;6.47;2.03;;;3.40;99.90;;;;;;5006013;28;20204;-48
2021/03/07 06:19:56;;;;;;;4.13;2.60;;;3.40;99.90;;;;;;5005706;28;20191;-48
2021/03/07 06:22:22;;;;;;;5.07;2.27;;;3.40;99.90;;;;;;4992647;28;20331;-53
2021/03/07 06:24:48;;;;;;;5.03;2.77;;;3.40;99.90;;;;;;4997673;28;20188;-50
2021/03/07 06:27:17;;;;;;;4.07;2.40;;;3.40;99.90;;;;;;4982398;28;20178;-51
2021/03/07 06:30:04;;;;;;;9.73;2.33;;;3.40;99.90;;;;;;5004249;28;20212;-48
2021/03/07 06:32:35;;;;;;;7.43;2.90;;;3.40;99.90;;;;;;4985283;28;20192;-48
2021/03/07 06:35:03;;;;;;;3.53;2.10;;;3.40;99.90;;;;;;4983997;28;20594;-52
2021/03/07 06:37:29;;;;;;;5.30;2.67;;;3.50;99.90;;;;;;4976782;28;20208;-50
2021/03/07 06:39:54;;;;;;;4.33;2.70;;;3.50;99.90;;;;;;4995751;28;20185;-51
2021/03/07 06:42:21;;;;;;;4.07;2.73;;;3.50;99.90;;;;;;4983230;28;20208;-50
2021/03/07 06:45:01;;;;;;;4.97;2.33;;;3.50;99.90;;;;;;4985988;28;20192;-52
2021/03/07 06:47:28;;;;;;;6.60;2.80;;;3.60;99.90;;;;;;4984484;28;20181;-50
2021/03/07 06:50:11;;;;;;;6.73;2.73;;;3.60;99.90;;;;;;4983439;28;20332;-51
2021/03/07 06:52:57;;;;;;;8.83;2.10;;;3.60;99.90;;;;;;4985897;28;20196;-49
2021/03/07 06:55:26;;;;;;;3.33;2.20;;;3.60;99.90;;;;;;4991094;28;20907;-50
2021/03/07 06:57:52;;;;;;;3.40;2.33;;;3.60;99.90;;;;;;5001436;28;20188;-51
2021/03/07 07:00:36;;;;;;;7.53;2.53;;;3.60;99.90;;;;;;4997886;28;20173;-50
2021/03/07 07:03:13;;;;;;;5.73;2.40;;;3.70;99.90;;;;;;4983351;28;20188;-50
2021/03/07 07:05:43;;;;;;;3.97;2.20;;;3.70;99.90;;;;;;4985536;28;20236;-49
2021/03/07 07:08:11;;;;;;;6.47;2.93;;;3.70;99.90;;;;;;4971628;28;20249;-51
2021/03/07 07:10:51;;;;;;;3.80;2.20;;;3.70;99.90;;;;;;4997600;28;20185;-45
2021/03/07 07:13:19;;;;;;;4.30;2.40;;;3.70;99.90;;;;;;4985147;28;20415;-47
2021/03/07 07:16:00;;;;;;;5.30;2.30;;;3.70;99.90;;;;;;4988310;28;20252;-48
2021/03/07 07:18:26;;;;;;;6.30;2.40;;;3.70;99.90;;;;;;4986449;28;20177;-46
2021/03/07 07:20:53;;;;;;;4.40;2.00;;;3.70;99.90;;;;;;4987291;28;20208;-50
2021/03/07 07:23:20;;;;;;;4.37;1.93;;;3.70;99.90;;;;;;4982715;28;20213;-48
2021/03/07 07:25:46;;;;;;;5.20;2.00;;;3.70;99.90;;;;;;4987188;28;20243;-49
2021/03/07 07:28:12;;;;;;;7.37;2.13;;;3.80;99.90;;;;;;4992207;28;20251;-50
2021/03/07 07:30:38;;;;;;;3.80;1.80;;;3.70;99.90;;;;;;4998157;28;20566;-50
2021/03/07 07:33:09;;;;;;;13.63;2.47;;;3.80;99.90;;;;;;4984882;28;20192;-55
2021/03/07 07:35:36;;;;;;;3.60;1.80;;;3.80;99.90;;;;;;4986908;28;20215;-49
2021/03/07 07:38:04;;;;;;;4.90;1.87;;;3.80;99.90;;;;;;4985649;28;20185;-53
2021/03/07 07:40:41;;;;;;;3.43;1.60;;;3.80;99.90;;;;;;4981176;28;20194;-48
2021/03/07 07:43:07;;;;;;;3.50;1.40;;;3.80;99.90;;;;;;4992374;28;20185;-53
2021/03/07 07:45:33;;;;;;;3.10;1.70;;;3.80;99.90;;;;;;4986156;28;20309;-51
2021/03/07 07:47:59;;;;;;;2.77;1.73;;;3.90;99.90;;;;;;4983026;28;20228;-52
2021/03/07 07:50:28;;;;;;;3.50;1.30;;;3.90;99.90;;;;;;4982563;28;20174;-52
2021/03/07 07:53:01;;;;;;;3.47;1.40;;;3.90;99.90;;;;;;4983890;28;20182;-48
2021/03/07 07:55:46;;;;;;;2.57;1.53;;;3.90;99.90;;;;;;4982604;28;20196;-54
2021/03/07 07:58:34;;;;;;;5.27;1.33;;;3.90;99.90;;;;;;4991777;28;20181;-48
2021/03/07 08:01:00;;;;;;;1.60;1.47;;;3.90;99.90;;;;;;4992486;28;20528;-48
2021/03/07 08:03:40;;;;;;;4.23;1.50;;;3.90;99.90;;;;;;4982813;28;20920;-50
2021/03/07 08:06:07;;;;;;;3.03;1.77;;;3.90;99.90;;;;;;4981134;28;20211;-49
2021/03/07 08:08:34;;;;;;;4.77;1.70;;;4.00;99.90;;;;;;4982860;28;20213;-53
2021/03/07 08:11:00;;;;;;;3.63;1.83;;;4.00;99.90;;;;;;4977305;28;20243;-55
2021/03/07 08:13:29;;;;;;;3.50;1.50;;;4.00;99.90;;;;;;4992602;28;20166;-48
2021/03/07 08:15:56;;;;;;;2.90;1.40;;;4.00;99.90;;;;;;4985403;28;20292;-56
2021/03/07 08:18:23;;;;;;;2.87;1.50;;;4.00;99.90;;;;;;4982938;28;20166;-54
2021/03/07 08:20:51;;;;;;;8.47;1.60;;;4.00;99.90;;;;;;4984233;28;20310;-52
2021/03/07 08:23:21;;;;;;;4.03;1.47;;;4.00;99.90;;;;;;4980624;28;20888;-49
2021/03/07 08:25:50;;;;;;;2.93;1.50;;;4.10;99.90;;;;;;4984161;28;20902;-49
2021/03/07 08:28:31;;;;;;;4.83;1.60;;;4.00;99.90;;;;;;4981397;28;21019;-48
2021/03/07 08:31:00;;;;;;;3.23;1.70;;;4.10;99.90;;;;;;4992754;28;20231;-51
2021/03/07 08:33:31;;;;;;;2.57;1.77;;;4.10;99.90;;;;;;4982283;28;20165;-50
2021/03/07 08:36:21;;;;;;;5.13;1.40;;;4.10;99.90;;;;;;4982344;28;20204;-52
2021/03/07 08:38:49;;;;;;;4.03;1.73;;;4.10;99.90;;;;;;4993431;28;20570;-48
2021/03/07 08:41:24;;;;;;;3.83;1.50;;;4.10;99.90;;;;;;4999257;28;20258;-48
2021/03/07 08:43:57;;;;;;;7.17;1.67;;;4.10;99.90;;;;;;4982976;28;20238;-55
2021/03/07 08:46:41;;;;;;;4.23;1.27;;;4.20;99.90;;;;;;4995704;28;20216;-47
2021/03/07 08:49:11;;;;;;;4.33;1.63;;;4.20;99.90;;;;;;5001558;28;20295;-56
2021/03/07 08:51:38;;;;;;;6.50;1.57;;;4.20;99.90;;;;;;5004939;28;20597;-47
2021/03/07 08:54:07;;;;;;;3.60;1.30;;;4.20;99.90;;;;;;5001779;28;20200;-53
2021/03/07 08:56:33;;;;;;;5.00;1.67;;;4.20;99.90;;;;;;5004792;28;20192;-48
2021/03/07 08:58:59;;;;;;;7.00;1.90;;;4.30;99.90;;;;;;4988862;28;20513;-54
2021/03/07 09:01:26;;;;;;;5.83;1.77;;;4.30;99.90;;;;;;4995245;28;20181;-53
2021/03/07 09:03:59;;;;;;;7.50;1.50;;;4.30;99.90;;;;;;5004835;28;20220;-55
2021/03/07 09:06:28;;;;;;;3.27;1.60;;;4.40;99.90;;;;;;5003039;28;20188;-49
2021/03/07 09:09:26;;;;;;;5.53;1.60;;;4.40;99.90;;;;;;5004074;28;20200;-56
2021/03/07 09:11:56;;;;;;;3.17;1.23;;;4.60;99.90;;;;;;5013718;28;20199;-56
2021/03/07 09:14:37;;;;;;;4.70;1.47;;;4.60;99.90;;;;;;4986522;28;20194;-54
2021/03/07 09:17:08;;;;;;;4.00;1.60;;;4.60;99.90;;;;;;4990447;28;20176;-50
2021/03/07 09:19:36;;;;;;;3.40;1.50;;;4.70;99.90;;;;;;4982965;28;20189;-54
2021/03/07 09:22:30;;;;;;;6.13;2.00;;;4.70;99.90;;;;;;4980915;28;20181;-51
2021/03/07 09:25:01;;;;;;;2.63;1.23;;;4.80;99.90;;;;;;4981957;28;20255;-48
2021/03/07 09:27:29;;;;;;;2.70;1.60;;;5.00;99.90;;;;;;4982047;28;20173;-53
2021/03/07 09:30:08;;;;;;;3.03;1.40;;;5.00;99.90;;;;;;4994927;28;20269;-47
2021/03/07 09:32:35;;;;;;;4.00;1.60;;;5.10;99.90;;;;;;4990641;28;20271;-53
2021/03/07 09:35:15;;;;;;;3.77;1.67;;;5.10;99.90;;;;;;4998579;28;20216;-52
2021/03/07 09:37:41;;;;;;;3.60;1.40;;;5.20;99.90;;;;;;5003086;28;20443;-50
2021/03/07 09:40:11;;;;;;;8.13;2.00;;;5.20;99.90;;;;;;5002253;28;20653;-50
2021/03/07 09:42:38;;;;;;;3.90;1.47;;;5.20;99.90;;;;;;5006909;28;20177;-52
2021/03/07 09:45:05;;;;;;;4.07;1.67;;;5.20;99.90;;;;;;4993317;28;20213;-49
2021/03/07 09:47:31;;;;;;;3.40;1.80;;;5.20;99.90;;;;;;5003202;28;20188;-53
2021/03/07 09:49:57;;;;;;;3.87;1.63;;;5.30;99.90;;;;;;4987620;28;20668;-49
2021/03/07 09:52:22;;;;;;;6.33;1.73;;;5.30;99.90;;;;;;4987087;28;20269;-52
2021/03/07 09:54:53;;;;;;;4.40;1.57;;;5.30;99.90;;;;;;4990042;28;20261;-49
2021/03/07 09:57:20;;;;;;;3.13;1.37;;;5.30;99.90;;;;;;4984880;28;20161;-51
2021/03/07 09:59:52;;;;;;;4.43;1.80;;;5.40;99.90;;;;;;5005385;28;20197;-48
2021/03/07 10:02:19;;;;;;;2.60;1.30;;;5.40;99.90;;;;;;4977672;28;20196;-53
2021/03/07 10:04:46;;;;;;;4.07;1.60;;;5.40;99.90;;;;;;4994778;28;20280;-50
2021/03/07 10:07:21;;;;;;;3.27;1.80;;;5.50;99.90;;;;;;4982613;28;20181;-50
2021/03/07 10:10:11;;;;;;;2.73;1.50;;;5.50;99.90;;;;;;4986448;28;20213;-50
2021/03/07 10:12:45;;;;;;;4.63;1.77;;;5.60;99.90;;;;;;4986709;28;20268;-49
2021/03/07 10:15:24;;;;;;;4.07;1.53;;;5.60;99.90;;;;;;4985359;28;20225;-52
2021/03/07 10:17:49;;;;;;;8.40;2.43;;;5.60;99.90;;;;;;4984355;28;20189;-52
2021/03/07 10:20:15;;;;;;;4.00;1.63;;;5.70;99.90;;;;;;4992674;28;20248;-52
2021/03/07 10:22:43;;;;;;;6.13;1.40;;;5.70;99.90;;;;;;4989332;28;20208;-51
2021/03/07 10:25:25;;;;;;;4.50;1.70;;;5.70;99.90;;;;;;4985349;28;20208;-55
2021/03/07 10:28:07;;;;;;;1.90;1.53;;;5.70;99.90;;;;;;4992062;28;20211;-54
2021/03/07 10:30:40;;;;;;;4.13;1.60;;;5.80;99.90;;;;;;5002122;28;20232;-51
2021/03/07 10:33:10;;;;;;;6.23;1.63;;;5.80;99.90;;;;;;4982997;28;20197;-53
2021/03/07 10:35:37;;;;;;;4.63;1.80;;;5.90;99.90;;;;;;4994270;28;20236;-49
2021/03/07 10:38:03;;;;;;;4.20;1.80;;;6.00;99.90;;;;;;4985980;28;20225;-53
2021/03/07 10:40:33;;;;;;;4.73;2.00;;;6.10;99.90;;;;;;4987713;28;20392;-48
2021/03/07 10:43:01;;;;;;;5.03;2.00;;;6.10;99.90;;;;;;4987026;28;20207;-54
2021/03/07 10:45:27;;;;;;;5.27;1.73;;;6.10;99.90;;;;;;4987231;28;20792;-47
2021/03/07 10:48:05;;;;;;;5.23;1.73;;;6.20;99.90;;;;;;4983313;28;20204;-54
2021/03/07 10:50:31;;;;;;;8.07;1.80;;;6.10;99.90;;;;;;4996025;28;20177;-47
2021/03/07 10:52:57;;;;;;;3.10;1.80;;;6.00;99.90;;;;;;5004023;28;20208;-48
2021/03/07 10:55:23;;;;;;;3.63;2.00;;;6.00;99.90;;;;;;5003019;28;20945;-46
2021/03/07 10:57:49;;;;;;;3.47;1.67;;;5.90;99.90;;;;;;5005267;28;20193;-53
2021/03/07 11:00:15;;;;;;;7.50;2.80;;;5.90;99.90;;;;;;5000681;28;20816;-47
2021/03/07 11:02:44;;;;;;;4.13;1.70;;;5.80;99.90;;;;;;4983433;28;20688;-51
2021/03/07 11:05:14;;;;;;;4.70;1.80;;;5.80;99.90;;;;;;4989967;28;20224;-52
2021/03/07 11:07:41;;;;;;;6.80;2.10;;;5.80;99.90;;;;;;4985651;28;20621;-51
2021/03/07 11:10:08;;;;;;;4.10;2.23;;;5.80;99.90;;;;;;4981870;28;20304;-52
2021/03/07 11:12:34;;;;;;;4.80;2.50;;;5.70;99.90;;;;;;4985412;28;20245;-51
2021/03/07 11:15:00;;;;;;;2.93;2.20;;;5.70;99.90;;;;;;4983568;28;20251;-53
2021/03/07 11:17:25;;;;;;;2.30;2.00;;;5.70;99.90;;;;;;4984405;28;20284;-52
2021/03/07 11:19:51;;;;;;;7.53;2.97;;;5.60;99.90;;;;;;4982746;28;20225;-55
2021/03/07 11:22:17;;;;;;;3.77;2.33;;;5.60;99.90;;;;;;4990695;28;20292;-53
2021/03/07 11:24:42;;;;;;;4.67;2.50;;;5.50;99.90;;;;;;4985329;28;20177;-54
2021/03/07 11:27:08;;;;;;;3.60;2.60;;;5.60;99.90;;;;;;4981722;28;20246;-49
2021/03/07 11:29:33;;;;;;;6.70;3.27;;;5.60;99.90;;;;;;4993454;28;20257;-50
2021/03/07 11:31:59;;;;;;;7.80;3.60;;;5.60;99.90;;;;;;4993231;28;20173;-51
2021/03/07 11:34:24;;;;;;;5.20;2.97;;;5.60;99.90;;;;;;4981927;28;20219;-53
2021/03/07 11:36:50;;;;;;;8.33;3.63;;;5.50;99.90;;;;;;4996203;28;20565;-53
2021/03/07 11:39:15;;;;;;;6.33;3.73;;;5.50;99.90;;;;;;4999307;28;20180;-49
2021/03/07 11:41:41;;;;;;;8.17;4.30;;;5.40;99.90;;;;;;5004598;28;20215;-49
2021/03/07 11:44:07;;;;;;;7.70;4.63;;;5.40;99.90;;;;;;4999591;28;20192;-50
2021/03/07 11:46:33;;;;;;;8.67;3.93;;;5.40;99.90;;;;;;5003760;28;20577;-54
2021/03/07 11:48:58;;;;;;;6.53;4.90;;;5.50;99.90;;;;;;4994818;28;20213;-51
2021/03/07 11:51:24;;;;;;;7.27;4.70;;;5.60;99.90;;;;;;4990789;28;20181;-53
2021/03/07 11:53:49;;;;;;;6.57;4.93;;;5.60;99.90;;;;;;5000690;28;20569;-50
2021/03/07 11:56:15;;;;;;;9.07;4.53;;;5.60;99.90;;;;;;5000364;28;20776;-54
2021/03/07 11:58:40;;;;;;;6.27;4.43;;;5.70;99.90;;;;;;5004040;28;20723;-50
2021/03/07 12:01:06;;;;;;;9.43;4.53;;;5.60;99.90;;;;;;4998580;28;20189;-52
2021/03/07 12:03:31;;;;;;;10.43;5.13;;;5.60;99.90;;;;;;4985303;28;20185;-50
2021/03/07 12:05:57;;;;;;;7.47;5.10;;;5.60;99.90;;;;;;4988460;28;20263;-54
2021/03/07 12:08:22;;;;;;;7.00;4.63;;;5.50;99.90;;;;;;4997421;28;20204;-48
2021/03/07 12:10:48;;;;;;;9.73;5.17;;;5.50;99.90;;;;;;5006484;28;20192;-52
2021/03/07 12:13:14;;;;;;;7.90;5.07;;;5.50;99.90;;;;;;5002768;28;20266;-50
2021/03/07 12:15:39;;;;;;;8.73;5.27;;;5.50;99.90;;;;;;5005529;28;20327;-52
2021/03/07 12:18:05;;;;;;;6.50;5.23;;;5.50;99.90;;;;;;5002259;28;20192;-55
2021/03/07 12:20:31;;;;;;;9.90;5.67;;;5.50;99.90;;;;;;4990170;28;20196;-50
2021/03/07 12:22:56;;;;;;;8.73;5.67;;;5.50;99.90;;;;;;4994083;28;20228;-52
2021/03/07 12:25:22;;;;;;;8.77;5.57;;;5.50;99.90;;;;;;5001225;28;20196;-49
2021/03/07 12:27:48;;;;;;;9.47;5.63;;;5.50;99.90;;;;;;5003798;28;20181;-51
2021/03/07 12:30:14;;;;;;;9.33;5.37;;;5.50;99.90;;;;;;4999651;28;20169;-48
2021/03/07 12:32:39;;;;;;;11.33;6.07;;;5.50;99.90;;;;;;4990542;28;20264;-47
2021/03/07 12:35:06;;;;;;;10.77;6.37;;;5.60;99.90;;;;;;4974530;28;20649;-53
2021/03/07 12:37:31;;;;;;;10.40;6.10;;;5.60;99.90;;;;;;4995419;28;20228;-51
2021/03/07 12:39:57;;;;;;;15.70;6.60;;;5.70;99.90;;;;;;4987611;28;20271;-52
2021/03/07 12:42:23;;;;;;;15.43;6.47;;;5.70;99.90;;;;;;4984243;28;20264;-53
2021/03/07 12:44:48;;;;;;;10.37;5.73;;;5.80;99.90;;;;;;4986965;28;20243;-50
2021/03/07 12:47:14;;;;;;;10.57;6.40;;;5.80;99.90;;;;;;4981991;28;20179;-46
2021/03/07 12:49:39;;;;;;;6.47;3.83;;;5.80;99.90;;;;;;4986248;28;20213;-50
2021/03/07 12:52:05;;;;;;;9.90;6.33;;;5.80;99.90;;;;;;4978483;28;20272;-51
2021/03/07 12:54:30;;;;;;;11.67;6.67;;;5.90;99.90;;;;;;5006585;28;20276;-51
2021/03/07 12:56:56;;;;;;;15.23;6.70;;;5.90;99.90;;;;;;4982377;28;20205;-49
2021/03/07 12:59:21;;;;;;;19.07;6.83;;;6.00;99.90;;;;;;4987720;28;20177;-47
2021/03/07 13:01:47;;;;;;;14.20;6.37;;;6.00;99.90;;;;;;5010372;28;20201;-48
2021/03/07 13:04:12;;;;;;;13.47;6.73;;;6.00;99.90;;;;;;4979325;28;20228;-53